sensor_id;sensor_type;location;lat;lon;timestamp;pressure;altitude;pressure_sealevel;temperature;humidity
11329;BME280;5719;42.714;23.732;2023-04-19T00:02:01;93977.69;;;10.70;96.56
11329;BME280;5719;42.714;23.732;2023-04-19T00:04:29;93970.56;;;10.83;95.15
11329;BME280;5719;42.714;23.732;2023-04-19T00:06:57;93971.44;;;10.93;95.55
11329;BME280;5719;42.714;23.732;2023-04-19T00:09:24;93965.22;;;10.96;94.75
11329;BME280;5719;42.714;23.732;2023-04-19T00:11:51;93970.84;;;11.01;93.92
11329;BME280;5719;42.714;23.732;2023-04-19T00:14:18;93968.13;;;11.02;93.44
11329;BME280;5719;42.714;23.732;2023-04-19T00:16:45;93973.63;;;11.09;93.69
11329;BME280;5719;42.714;23.732;2023-04-19T00:19:12;93965.75;;;11.10;93.13
11329;BME280;5719;42.714;23.732;2023-04-19T00:21:40;93969.94;;;11.11;93.55
11329;BME280;5719;42.714;23.732;2023-04-19T00:24:07;93969.28;;;11.09;93.72
11329;BME280;5719;42.714;23.732;2023-04-19T00:26:34;93963.84;;;11.12;93.72
11329;BME280;5719;42.714;23.732;2023-04-19T00:29:01;93958.00;;;11.10;93.61
11329;BME280;5719;42.714;23.732;2023-04-19T00:31:28;93964.66;;;11.13;93.48
11329;BME280;5719;42.714;23.732;2023-04-19T00:33:55;93964.56;;;11.14;93.35
11329;BME280;5719;42.714;23.732;2023-04-19T00:36:22;93964.72;;;11.02;93.99
11329;BME280;5719;42.714;23.732;2023-04-19T00:38:50;93965.19;;;11.07;94.24
11329;BME280;5719;42.714;23.732;2023-04-19T00:41:17;93965.75;;;11.10;94.31
11329;BME280;5719;42.714;23.732;2023-04-19T00:43:44;93966.56;;;11.11;94.33
11329;BME280;5719;42.714;23.732;2023-04-19T00:46:12;93969.59;;;11.16;94.81
11329;BME280;5719;42.714;23.732;2023-04-19T00:48:39;93961.81;;;10.74;97.08
11329;BME280;5719;42.714;23.732;2023-04-19T00:51:07;93957.72;;;10.29;100.00
11329;BME280;5719;42.714;23.732;2023-04-19T00:53:35;93959.78;;;10.46;100.00
11329;BME280;5719;42.714;23.732;2023-04-19T00:56:04;93961.38;;;10.58;100.00
11329;BME280;5719;42.714;23.732;2023-04-19T00:58:32;93957.81;;;10.70;99.31
11329;BME280;5719;42.714;23.732;2023-04-19T01:00:59;93957.06;;;10.79;99.15
11329;BME280;5719;42.714;23.732;2023-04-19T01:03:26;93950.44;;;10.87;98.44
11329;BME280;5719;42.714;23.732;2023-04-19T01:05:54;93950.19;;;10.90;97.93
11329;BME280;5719;42.714;23.732;2023-04-19T01:08:21;93945.28;;;10.87;97.37
11329;BME280;5719;42.714;23.732;2023-04-19T01:10:48;93945.06;;;10.78;98.46
11329;BME280;5719;42.714;23.732;2023-04-19T01:13:16;93957.16;;;10.89;97.70
11329;BME280;5719;42.714;23.732;2023-04-19T01:15:43;93951.03;;;10.90;97.44
11329;BME280;5719;42.714;23.732;2023-04-19T01:18:10;93952.00;;;10.89;97.63
11329;BME280;5719;42.714;23.732;2023-04-19T01:20:38;93948.44;;;10.90;97.67
11329;BME280;5719;42.714;23.732;2023-04-19T01:23:06;93948.75;;;10.97;97.88
11329;BME280;5719;42.714;23.732;2023-04-19T01:25:36;93941.69;;;10.99;97.86
11329;BME280;5719;42.714;23.732;2023-04-19T01:28:03;93947.44;;;11.02;97.94
11329;BME280;5719;42.714;23.732;2023-04-19T01:30:30;93942.28;;;11.02;97.83
11329;BME280;5719;42.714;23.732;2023-04-19T01:32:57;93947.75;;;11.09;98.08
11329;BME280;5719;42.714;23.732;2023-04-19T01:35:24;93929.06;;;11.05;97.60
11329;BME280;5719;42.714;23.732;2023-04-19T01:37:51;93941.69;;;10.78;99.10
11329;BME280;5719;42.714;23.732;2023-04-19T01:40:22;93945.16;;;10.88;98.85
11329;BME280;5719;42.714;23.732;2023-04-19T01:42:50;93945.94;;;11.00;99.38
11329;BME280;5719;42.714;23.732;2023-04-19T01:45:17;93942.84;;;11.06;98.39
11329;BME280;5719;42.714;23.732;2023-04-19T01:47:44;93939.69;;;11.02;98.76
11329;BME280;5719;42.714;23.732;2023-04-19T01:50:11;93931.81;;;11.04;97.67
11329;BME280;5719;42.714;23.732;2023-04-19T01:52:38;93935.75;;;11.08;97.92
11329;BME280;5719;42.714;23.732;2023-04-19T01:55:05;93924.72;;;11.06;98.45
11329;BME280;5719;42.714;23.732;2023-04-19T01:57:33;93931.56;;;11.07;98.25
11329;BME280;5719;42.714;23.732;2023-04-19T02:00:00;93927.31;;;11.06;98.55
11329;BME280;5719;42.714;23.732;2023-04-19T02:02:27;93920.63;;;11.03;98.97
11329;BME280;5719;42.714;23.732;2023-04-19T02:04:54;93929.66;;;11.09;99.50
11329;BME280;5719;42.714;23.732;2023-04-19T02:07:21;93931.28;;;11.10;99.49
11329;BME280;5719;42.714;23.732;2023-04-19T02:09:48;93931.56;;;11.07;98.98
11329;BME280;5719;42.714;23.732;2023-04-19T02:12:15;93931.56;;;11.07;99.46
11329;BME280;5719;42.714;23.732;2023-04-19T02:14:43;93935.00;;;10.75;100.00
11329;BME280;5719;42.714;23.732;2023-04-19T02:17:10;93931.22;;;10.79;100.00
11329;BME280;5719;42.714;23.732;2023-04-19T02:19:37;93931.88;;;10.61;100.00
11329;BME280;5719;42.714;23.732;2023-04-19T02:22:03;93931.97;;;10.70;100.00
11329;BME280;5719;42.714;23.732;2023-04-19T02:24:30;93934.06;;;10.76;100.00
11329;BME280;5719;42.714;23.732;2023-04-19T02:26:57;93932.84;;;10.80;100.00
11329;BME280;5719;42.714;23.732;2023-04-19T02:29:24;93928.00;;;10.87;100.00
11329;BME280;5719;42.714;23.732;2023-04-19T02:31:52;93937.03;;;10.93;100.00
11329;BME280;5719;42.714;23.732;2023-04-19T02:34:19;93933.38;;;10.95;100.00
11329;BME280;5719;42.714;23.732;2023-04-19T02:36:46;93929.41;;;10.91;100.00
11329;BME280;5719;42.714;23.732;2023-04-19T02:39:13;93929.19;;;10.62;100.00
11329;BME280;5719;42.714;23.732;2023-04-19T02:41:40;93933.47;;;10.73;100.00
11329;BME280;5719;42.714;23.732;2023-04-19T02:44:06;93930.13;;;10.82;100.00
11329;BME280;5719;42.714;23.732;2023-04-19T02:46:34;93927.44;;;10.83;100.00
11329;BME280;5719;42.714;23.732;2023-04-19T02:49:02;93922.94;;;10.86;100.00
11329;BME280;5719;42.714;23.732;2023-04-19T02:51:29;93933.06;;;10.89;100.00
11329;BME280;5719;42.714;23.732;2023-04-19T02:53:56;93919.41;;;10.87;100.00
11329;BME280;5719;42.714;23.732;2023-04-19T02:56:23;93925.31;;;10.89;100.00
11329;BME280;5719;42.714;23.732;2023-04-19T02:58:51;93923.41;;;10.91;100.00
11329;BME280;5719;42.714;23.732;2023-04-19T03:01:18;93923.13;;;10.94;100.00
11329;BME280;5719;42.714;23.732;2023-04-19T03:03:45;93923.13;;;10.94;100.00
11329;BME280;5719;42.714;23.732;2023-04-19T03:06:13;93918.22;;;10.91;100.00
11329;BME280;5719;42.714;23.732;2023-04-19T03:08:41;93922.94;;;10.86;100.00
11329;BME280;5719;42.714;23.732;2023-04-19T03:11:08;93919.41;;;10.87;100.00
11329;BME280;5719;42.714;23.732;2023-04-19T03:13:35;93918.59;;;10.86;100.00
11329;BME280;5719;42.714;23.732;2023-04-19T03:16:02;93926.59;;;10.83;100.00
11329;BME280;5719;42.714;23.732;2023-04-19T03:18:28;93921.97;;;10.45;100.00
11329;BME280;5719;42.714;23.732;2023-04-19T03:20:55;93916.56;;;10.48;100.00
11329;BME280;5719;42.714;23.732;2023-04-19T03:23:24;93928.47;;;10.60;100.00
11329;BME280;5719;42.714;23.732;2023-04-19T03:25:51;93922.81;;;10.66;100.00
11329;BME280;5719;42.714;23.732;2023-04-19T03:28:18;93923.81;;;10.75;100.00
11329;BME280;5719;42.714;23.732;2023-04-19T03:30:45;93921.69;;;10.80;100.00
11329;BME280;5719;42.714;23.732;2023-04-19T03:33:12;93928.50;;;10.81;100.00
11329;BME280;5719;42.714;23.732;2023-04-19T03:35:39;93920.25;;;10.66;100.00
11329;BME280;5719;42.714;23.732;2023-04-19T03:38:05;93931.63;;;10.64;100.00
11329;BME280;5719;42.714;23.732;2023-04-19T03:40:36;93922.88;;;10.55;100.00
11329;BME280;5719;42.714;23.732;2023-04-19T03:43:03;93932.44;;;10.64;100.00
11329;BME280;5719;42.714;23.732;2023-04-19T03:45:30;93928.25;;;10.63;100.00
11329;BME280;5719;42.714;23.732;2023-04-19T03:47:57;93923.66;;;10.67;100.00
11329;BME280;5719;42.714;23.732;2023-04-19T03:50:24;93926.28;;;10.76;100.00
11329;BME280;5719;42.714;23.732;2023-04-19T03:52:50;93921.69;;;10.80;100.00
11329;BME280;5719;42.714;23.732;2023-04-19T03:55:19;93933.69;;;10.81;100.00
11329;BME280;5719;42.714;23.732;2023-04-19T03:57:47;93926.59;;;10.83;100.00
11329;BME280;5719;42.714;23.732;2023-04-19T04:00:14;93929.91;;;10.85;100.00
11329;BME280;5719;42.714;23.732;2023-04-19T04:02:42;93927.19;;;10.87;100.00
11329;BME280;5719;42.714;23.732;2023-04-19T04:05:09;93927.75;;;10.90;100.00
11329;BME280;5719;42.714;23.732;2023-04-19T04:07:35;93931.88;;;10.93;100.00
11329;BME280;5719;42.714;23.732;2023-04-19T04:10:03;93933.50;;;10.94;100.00
11329;BME280;5719;42.714;23.732;2023-04-19T04:12:30;93933.22;;;10.97;100.00
11329;BME280;5719;42.714;23.732;2023-04-19T04:14:59;93935.03;;;10.96;100.00
11329;BME280;5719;42.714;23.732;2023-04-19T04:17:25;93938.41;;;10.97;100.00
11329;BME280;5719;42.714;23.732;2023-04-19T04:19:52;93929.72;;;10.98;100.00
11329;BME280;5719;42.714;23.732;2023-04-19T04:22:19;93929.41;;;10.91;100.00
11329;BME280;5719;42.714;23.732;2023-04-19T04:24:46;93936.31;;;10.91;100.00
11329;BME280;5719;42.714;23.732;2023-04-19T04:27:13;93932.25;;;10.88;100.00
11329;BME280;5719;42.714;23.732;2023-04-19T04:29:44;93931.34;;;10.78;100.00
11329;BME280;5719;42.714;23.732;2023-04-19T04:32:13;93923.28;;;10.60;100.00
11329;BME280;5719;42.714;23.732;2023-04-19T04:34:43;93927.28;;;10.32;100.00
11329;BME280;5719;42.714;23.732;2023-04-19T04:37:10;93932.44;;;10.32;100.00
11329;BME280;5719;42.714;23.732;2023-04-19T04:39:36;93933.94;;;10.46;100.00
11329;BME280;5719;42.714;23.732;2023-04-19T04:42:04;93930.72;;;10.54;100.00
11329;BME280;5719;42.714;23.732;2023-04-19T04:44:33;93921.78;;;10.58;100.00
11329;BME280;5719;42.714;23.732;2023-04-19T04:47:00;93937.53;;;10.55;100.00
11329;BME280;5719;42.714;23.732;2023-04-19T04:49:29;93942.16;;;10.51;100.00
11329;BME280;5719;42.714;23.732;2023-04-19T04:51:56;93936.03;;;10.52;100.00
11329;BME280;5719;42.714;23.732;2023-04-19T04:54:23;93936.31;;;10.38;100.00
11329;BME280;5719;42.714;23.732;2023-04-19T04:56:50;93943.59;;;10.33;100.00
11329;BME280;5719;42.714;23.732;2023-04-19T04:59:16;93935.97;;;10.31;100.00
11329;BME280;5719;42.714;23.732;2023-04-19T05:01:43;93940.75;;;9.82;100.00
11329;BME280;5719;42.714;23.732;2023-04-19T05:04:10;93934.28;;;9.65;100.00
11329;BME280;5719;42.714;23.732;2023-04-19T05:06:39;93945.06;;;9.48;100.00
11329;BME280;5719;42.714;23.732;2023-04-19T05:09:06;93936.13;;;9.19;100.00
11329;BME280;5719;42.714;23.732;2023-04-19T05:11:33;93941.56;;;9.38;100.00
11329;BME280;5719;42.714;23.732;2023-04-19T05:14:00;93936.28;;;9.28;100.00
11329;BME280;5719;42.714;23.732;2023-04-19T05:16:27;93943.91;;;9.41;100.00
11329;BME280;5719;42.714;23.732;2023-04-19T05:18:53;93942.97;;;9.53;100.00
11329;BME280;5719;42.714;23.732;2023-04-19T05:21:20;93937.81;;;9.64;100.00
11329;BME280;5719;42.714;23.732;2023-04-19T05:23:49;93935.69;;;9.58;100.00
11329;BME280;5719;42.714;23.732;2023-04-19T05:26:17;93942.50;;;9.70;100.00
11329;BME280;5719;42.714;23.732;2023-04-19T05:28:45;93942.38;;;9.27;100.00
11329;BME280;5719;42.714;23.732;2023-04-19T05:31:12;93942.69;;;9.12;100.00
11329;BME280;5719;42.714;23.732;2023-04-19T05:33:39;93948.09;;;9.20;100.00
11329;BME280;5719;42.714;23.732;2023-04-19T05:36:06;93921.75;;;9.27;100.00
11329;BME280;5719;42.714;23.732;2023-04-19T05:38:33;93945.78;;;9.28;100.00
11329;BME280;5719;42.714;23.732;2023-04-19T05:41:02;93938.66;;;8.97;100.00
11329;BME280;5719;42.714;23.732;2023-04-19T05:43:29;93952.28;;;8.99;100.00
11329;BME280;5719;42.714;23.732;2023-04-19T05:45:56;93943.38;;;8.92;100.00
11329;BME280;5719;42.714;23.732;2023-04-19T05:48:22;93950.59;;;8.86;100.00
11329;BME280;5719;42.714;23.732;2023-04-19T05:50:50;93949.22;;;8.94;100.00
11329;BME280;5719;42.714;23.732;2023-04-19T05:53:19;93949.97;;;9.07;100.00
11329;BME280;5719;42.714;23.732;2023-04-19T05:55:46;93955.47;;;9.13;100.00
11329;BME280;5719;42.714;23.732;2023-04-19T05:58:16;93944.56;;;9.10;100.00
11329;BME280;5719;42.714;23.732;2023-04-19T06:00:43;93951.38;;;9.00;100.00
11329;BME280;5719;42.714;23.732;2023-04-19T06:03:10;93945.59;;;8.85;100.00
11329;BME280;5719;42.714;23.732;2023-04-19T06:05:37;93948.78;;;9.00;100.00
11329;BME280;5719;42.714;23.732;2023-04-19T06:08:05;93948.91;;;9.09;100.00
11329;BME280;5719;42.714;23.732;2023-04-19T06:10:34;93950.84;;;8.83;100.00
11329;BME280;5719;42.714;23.732;2023-04-19T06:13:01;93950.75;;;8.61;100.00
11329;BME280;5719;42.714;23.732;2023-04-19T06:15:29;93945.66;;;8.72;100.00
11329;BME280;5719;42.714;23.732;2023-04-19T06:17:58;93952.13;;;8.89;100.00
11329;BME280;5719;42.714;23.732;2023-04-19T06:20:25;93955.06;;;8.84;100.00
11329;BME280;5719;42.714;23.732;2023-04-19T06:22:52;93946.53;;;8.95;100.00
11329;BME280;5719;42.714;23.732;2023-04-19T06:25:19;93954.97;;;8.97;100.00
11329;BME280;5719;42.714;23.732;2023-04-19T06:27:46;93960.94;;;8.98;100.00
11329;BME280;5719;42.714;23.732;2023-04-19T06:30:13;93954.66;;;9.13;100.00
11329;BME280;5719;42.714;23.732;2023-04-19T06:32:42;93956.50;;;9.11;100.00
11329;BME280;5719;42.714;23.732;2023-04-19T06:35:09;93964.16;;;9.12;100.00
11329;BME280;5719;42.714;23.732;2023-04-19T06:37:37;93960.78;;;9.34;100.00
11329;BME280;5719;42.714;23.732;2023-04-19T06:40:06;93958.22;;;9.45;100.00
11329;BME280;5719;42.714;23.732;2023-04-19T06:42:34;93957.03;;;9.38;100.00
11329;BME280;5719;42.714;23.732;2023-04-19T06:45:01;93960.75;;;9.23;100.00
11329;BME280;5719;42.714;23.732;2023-04-19T06:47:28;93964.69;;;9.40;100.00
11329;BME280;5719;42.714;23.732;2023-04-19T06:49:57;93964.44;;;9.43;100.00
11329;BME280;5719;42.714;23.732;2023-04-19T06:52:24;93972.00;;;9.22;100.00
11329;BME280;5719;42.714;23.732;2023-04-19T06:54:51;93976.56;;;9.18;100.00
11329;BME280;5719;42.714;23.732;2023-04-19T06:57:18;93976.13;;;9.13;100.00
11329;BME280;5719;42.714;23.732;2023-04-19T06:59:45;93973.41;;;9.15;100.00
11329;BME280;5719;42.714;23.732;2023-04-19T07:02:12;93975.97;;;9.15;100.00
11329;BME280;5719;42.714;23.732;2023-04-19T07:04:39;93978.47;;;9.16;100.00
11329;BME280;5719;42.714;23.732;2023-04-19T07:07:07;93969.69;;;9.30;100.00
11329;BME280;5719;42.714;23.732;2023-04-19T07:09:34;93976.97;;;9.69;100.00
11329;BME280;5719;42.714;23.732;2023-04-19T07:12:01;93980.28;;;9.82;100.00
11329;BME280;5719;42.714;23.732;2023-04-19T07:14:28;93978.75;;;9.80;100.00
11329;BME280;5719;42.714;23.732;2023-04-19T07:16:55;93980.88;;;9.75;100.00
11329;BME280;5719;42.714;23.732;2023-04-19T07:19:22;93980.63;;;9.78;100.00
11329;BME280;5719;42.714;23.732;2023-04-19T07:21:49;93971.38;;;9.75;100.00
11329;BME280;5719;42.714;23.732;2023-04-19T07:24:18;93986.97;;;9.63;100.00
11329;BME280;5719;42.714;23.732;2023-04-19T07:26:45;93979.34;;;9.83;100.00
11329;BME280;5719;42.714;23.732;2023-04-19T07:29:12;93976.72;;;10.06;100.00
11329;BME280;5719;42.714;23.732;2023-04-19T07:31:39;93982.13;;;10.03;100.00
11329;BME280;5719;42.714;23.732;2023-04-19T07:34:06;93976.88;;;10.15;100.00
11329;BME280;5719;42.714;23.732;2023-04-19T07:36:33;93977.72;;;10.16;100.00
11329;BME280;5719;42.714;23.732;2023-04-19T07:39:01;93974.84;;;10.30;100.00
11329;BME280;5719;42.714;23.732;2023-04-19T07:41:30;93989.38;;;10.42;100.00
11329;BME280;5719;42.714;23.732;2023-04-19T07:43:57;93980.94;;;10.40;100.00
11329;BME280;5719;42.714;23.732;2023-04-19T07:46:24;93978.31;;;10.51;100.00
11329;BME280;5719;42.714;23.732;2023-04-19T07:48:52;93983.97;;;10.56;100.00
11329;BME280;5719;42.714;23.732;2023-04-19T07:51:21;93982.84;;;10.70;100.00
11329;BME280;5719;42.714;23.732;2023-04-19T07:53:49;93984.16;;;10.64;100.00
11329;BME280;5719;42.714;23.732;2023-04-19T07:56:15;93981.63;;;10.42;100.00
11329;BME280;5719;42.714;23.732;2023-04-19T07:58:45;93983.88;;;10.36;100.00
11329;BME280;5719;42.714;23.732;2023-04-19T08:01:12;93986.34;;;10.37;100.00
11329;BME280;5719;42.714;23.732;2023-04-19T08:03:39;93982.28;;;10.23;100.00
11329;BME280;5719;42.714;23.732;2023-04-19T08:06:07;93984.03;;;10.23;100.00
11329;BME280;5719;42.714;23.732;2023-04-19T08:08:34;93984.50;;;10.17;100.00
11329;BME280;5719;42.714;23.732;2023-04-19T08:11:01;93987.53;;;10.00;100.00
11329;BME280;5719;42.714;23.732;2023-04-19T08:13:28;93985.19;;;9.97;100.00
11329;BME280;5719;42.714;23.732;2023-04-19T08:15:56;93988.72;;;10.29;100.00
11329;BME280;5719;42.714;23.732;2023-04-19T08:18:23;93986.59;;;10.77;100.00
11329;BME280;5719;42.714;23.732;2023-04-19T08:20:51;93981.75;;;11.04;100.00
11329;BME280;5719;42.714;23.732;2023-04-19T08:23:18;93981.53;;;11.28;100.00
11329;BME280;5719;42.714;23.732;2023-04-19T08:25:45;93983.72;;;11.53;100.00
11329;BME280;5719;42.714;23.732;2023-04-19T08:28:12;93985.03;;;11.68;100.00
11329;BME280;5719;42.714;23.732;2023-04-19T08:30:39;93985.47;;;11.73;100.00
11329;BME280;5719;42.714;23.732;2023-04-19T08:33:08;93981.38;;;11.71;100.00
11329;BME280;5719;42.714;23.732;2023-04-19T08:35:36;93970.00;;;11.83;100.00
11329;BME280;5719;42.714;23.732;2023-04-19T08:38:03;93987.16;;;11.84;100.00
11329;BME280;5719;42.714;23.732;2023-04-19T08:40:30;93991.56;;;11.93;98.68
11329;BME280;5719;42.714;23.732;2023-04-19T08:42:57;93974.66;;;11.99;98.61
11329;BME280;5719;42.714;23.732;2023-04-19T08:45:26;93968.00;;;11.96;97.05
11329;BME280;5719;42.714;23.732;2023-04-19T08:47:55;93973.31;;;11.95;97.03
11329;BME280;5719;42.714;23.732;2023-04-19T08:50:24;93970.16;;;11.91;97.22
11329;BME280;5719;42.714;23.732;2023-04-19T08:52:51;93967.72;;;11.99;96.76
11329;BME280;5719;42.714;23.732;2023-04-19T08:55:21;93966.13;;;12.08;96.21
11329;BME280;5719;42.714;23.732;2023-04-19T08:57:48;93965.75;;;12.12;94.93
11329;BME280;5719;42.714;23.732;2023-04-19T09:00:16;93959.06;;;12.19;95.08
11329;BME280;5719;42.714;23.732;2023-04-19T09:02:45;93963.72;;;12.25;95.95
11329;BME280;5719;42.714;23.732;2023-04-19T09:05:12;93966.31;;;12.35;95.21
11329;BME280;5719;42.714;23.732;2023-04-19T09:07:41;93965.41;;;12.46;93.40
11329;BME280;5719;42.714;23.732;2023-04-19T09:10:09;93960.50;;;12.52;93.03
11329;BME280;5719;42.714;23.732;2023-04-19T09:12:37;93964.03;;;12.61;92.60
11329;BME280;5719;42.714;23.732;2023-04-19T09:15:06;93952.34;;;12.66;91.90
11329;BME280;5719;42.714;23.732;2023-04-19T09:17:34;93963.38;;;12.68;91.18
11329;BME280;5719;42.714;23.732;2023-04-19T09:20:02;93955.03;;;12.55;89.74
11329;BME280;5719;42.714;23.732;2023-04-19T09:22:30;93966.91;;;12.48;90.49
11329;BME280;5719;42.714;23.732;2023-04-19T09:24:59;93952.44;;;12.46;90.41
11329;BME280;5719;42.714;23.732;2023-04-19T09:27:28;93958.59;;;12.45;91.75
11329;BME280;5719;42.714;23.732;2023-04-19T09:29:55;93958.03;;;12.51;92.23
11329;BME280;5719;42.714;23.732;2023-04-19T09:32:23;93950.88;;;12.24;91.26
11329;BME280;5719;42.714;23.732;2023-04-19T09:34:52;93960.13;;;12.17;91.25
11329;BME280;5719;42.714;23.732;2023-04-19T09:37:19;93956.78;;;12.36;91.84
11329;BME280;5719;42.714;23.732;2023-04-19T09:39:47;93958.84;;;12.61;90.86
11329;BME280;5719;42.714;23.732;2023-04-19T09:42:15;93955.34;;;12.81;90.26
11329;BME280;5719;42.714;23.732;2023-04-19T09:44:59;93957.66;;;12.94;89.92
11329;BME280;5719;42.714;23.732;2023-04-19T09:47:27;93943.44;;;12.59;87.79
11329;BME280;5719;42.714;23.732;2023-04-19T09:50:08;93955.47;;;12.60;90.59
11329;BME280;5719;42.714;23.732;2023-04-19T09:52:36;93952.34;;;12.86;88.90
11329;BME280;5719;42.714;23.732;2023-04-19T09:55:04;93949.06;;;13.03;87.35
11329;BME280;5719;42.714;23.732;2023-04-19T09:57:33;93940.88;;;13.17;86.33
11329;BME280;5719;42.714;23.732;2023-04-19T10:00:01;93943.06;;;12.93;86.76
11329;BME280;5719;42.714;23.732;2023-04-19T10:02:31;93933.47;;;12.55;89.68
11329;BME280;5719;42.714;23.732;2023-04-19T10:04:59;93939.50;;;12.46;91.17
11329;BME280;5719;42.714;23.732;2023-04-19T10:07:27;93927.22;;;12.96;90.07
11329;BME280;5719;42.714;23.732;2023-04-19T10:09:56;93929.19;;;14.14;84.43
11329;BME280;5719;42.714;23.732;2023-04-19T10:12:25;93925.47;;;14.71;82.97
11329;BME280;5719;42.714;23.732;2023-04-19T10:14:54;93928.88;;;15.76;74.25
11329;BME280;5719;42.714;23.732;2023-04-19T10:17:25;93916.22;;;16.23;64.79
11329;BME280;5719;42.714;23.732;2023-04-19T10:19:56;93926.59;;;15.73;68.27
11329;BME280;5719;42.714;23.732;2023-04-19T10:22:25;93926.50;;;15.91;65.84
11329;BME280;5719;42.714;23.732;2023-04-19T10:25:17;93929.59;;;15.60;65.11
11329;BME280;5719;42.714;23.732;2023-04-19T10:27:44;93916.81;;;16.09;64.95
11329;BME280;5719;42.714;23.732;2023-04-19T10:30:18;93921.47;;;16.31;63.86
11329;BME280;5719;42.714;23.732;2023-04-19T10:32:50;93915.47;;;16.39;62.22
11329;BME280;5719;42.714;23.732;2023-04-19T10:35:19;93915.69;;;16.61;61.31
11329;BME280;5719;42.714;23.732;2023-04-19T10:38:07;93921.13;;;16.26;66.54
11329;BME280;5719;42.714;23.732;2023-04-19T10:40:55;93924.31;;;16.12;70.45
11329;BME280;5719;42.714;23.732;2023-04-19T10:43:23;93942.72;;;15.51;78.52
11329;BME280;5719;42.714;23.732;2023-04-19T10:45:52;93942.50;;;15.44;69.31
11329;BME280;5719;42.714;23.732;2023-04-19T10:48:39;93937.88;;;15.38;72.25
11329;BME280;5719;42.714;23.732;2023-04-19T10:51:12;93948.81;;;15.42;78.56
11329;BME280;5719;42.714;23.732;2023-04-19T10:53:44;93944.84;;;14.94;81.53
11329;BME280;5719;42.714;23.732;2023-04-19T10:56:12;93944.53;;;14.97;84.50
11329;BME280;5719;42.714;23.732;2023-04-19T11:01:56;93941.38;;;14.86;84.29
11329;BME280;5719;42.714;23.732;2023-04-19T11:04:57;93945.53;;;14.79;83.43
11329;BME280;5719;42.714;23.732;2023-04-19T11:07:25;93929.41;;;14.75;81.90
11329;BME280;5719;42.714;23.732;2023-04-19T11:09:52;93928.50;;;14.66;83.09
11329;BME280;5719;42.714;23.732;2023-04-19T11:12:19;93941.22;;;14.69;83.51
11329;BME280;5719;42.714;23.732;2023-04-19T11:14:48;93930.16;;;14.67;82.40
11329;BME280;5719;42.714;23.732;2023-04-19T11:17:19;93928.19;;;14.69;82.01
11329;BME280;5719;42.714;23.732;2023-04-19T11:19:52;93928.13;;;14.79;81.81
11329;BME280;5719;42.714;23.732;2023-04-19T11:22:24;93924.25;;;14.83;80.79
11329;BME280;5719;42.714;23.732;2023-04-19T11:24:51;93921.59;;;14.93;83.75
11329;BME280;5719;42.714;23.732;2023-04-19T11:27:20;93929.22;;;15.12;84.07
11329;BME280;5719;42.714;23.732;2023-04-19T11:29:47;93924.66;;;15.32;81.90
11329;BME280;5719;42.714;23.732;2023-04-19T11:32:14;93925.47;;;15.50;78.10
11329;BME280;5719;42.714;23.732;2023-04-19T11:34:42;93925.13;;;15.79;79.32
11329;BME280;5719;42.714;23.732;2023-04-19T11:37:09;93906.00;;;15.96;76.58
11329;BME280;5719;42.714;23.732;2023-04-19T11:39:44;93919.00;;;16.30;74.92
11329;BME280;5719;42.714;23.732;2023-04-19T11:42:16;93916.19;;;16.57;75.95
11329;BME280;5719;42.714;23.732;2023-04-19T11:44:48;93917.06;;;16.82;72.59
11329;BME280;5719;42.714;23.732;2023-04-19T11:47:15;93914.09;;;16.85;69.59
11329;BME280;5719;42.714;23.732;2023-04-19T11:49:43;93908.72;;;16.70;70.53
11329;BME280;5719;42.714;23.732;2023-04-19T11:52:10;93915.28;;;16.40;72.08
11329;BME280;5719;42.714;23.732;2023-04-19T11:54:37;93918.28;;;15.78;75.06
11329;BME280;5719;42.714;23.732;2023-04-19T11:57:05;93920.34;;;15.40;77.43
11329;BME280;5719;42.714;23.732;2023-04-19T11:59:33;93916.72;;;15.41;80.23
11329;BME280;5719;42.714;23.732;2023-04-19T12:02:05;93915.22;;;15.13;80.58
11329;BME280;5719;42.714;23.732;2023-04-19T12:04:33;93919.47;;;14.43;87.42
11329;BME280;5719;42.714;23.732;2023-04-19T12:07:04;93912.97;;;14.75;88.21
11329;BME280;5719;42.714;23.732;2023-04-19T12:09:33;93909.38;;;14.76;88.42
11329;BME280;5719;42.714;23.732;2023-04-19T12:12:01;93905.06;;;15.02;87.53
11329;BME280;5719;42.714;23.732;2023-04-19T12:14:29;93908.44;;;15.20;88.11
11329;BME280;5719;42.714;23.732;2023-04-19T12:17:07;93898.72;;;15.48;86.35
11329;BME280;5719;42.714;23.732;2023-04-19T12:19:35;93891.19;;;15.62;83.03
11329;BME280;5719;42.714;23.732;2023-04-19T12:22:12;93895.59;;;16.04;76.68
11329;BME280;5719;42.714;23.732;2023-04-19T12:24:39;93892.78;;;16.31;74.71
11329;BME280;5719;42.714;23.732;2023-04-19T12:27:07;93883.63;;;16.27;75.16
11329;BME280;5719;42.714;23.732;2023-04-19T12:29:34;93872.09;;;16.46;77.78
11329;BME280;5719;42.714;23.732;2023-04-19T12:32:02;93881.47;;;16.73;76.07
11329;BME280;5719;42.714;23.732;2023-04-19T12:34:29;93878.22;;;17.11;72.54
11329;BME280;5719;42.714;23.732;2023-04-19T12:36:56;93868.03;;;17.64;69.36
11329;BME280;5719;42.714;23.732;2023-04-19T12:39:24;93864.13;;;18.07;66.75
11329;BME280;5719;42.714;23.732;2023-04-19T12:41:51;93867.72;;;18.45;67.50
11329;BME280;5719;42.714;23.732;2023-04-19T12:44:18;93864.34;;;18.68;64.01
11329;BME280;5719;42.714;23.732;2023-04-19T12:46:45;93866.41;;;18.95;63.74
11329;BME280;5719;42.714;23.732;2023-04-19T12:49:12;93861.16;;;19.18;61.36
11329;BME280;5719;42.714;23.732;2023-04-19T12:51:39;93868.50;;;19.45;58.75
11329;BME280;5719;42.714;23.732;2023-04-19T12:54:07;93873.56;;;19.61;55.94
11329;BME280;5719;42.714;23.732;2023-04-19T12:56:35;93857.66;;;19.63;54.46
11329;BME280;5719;42.714;23.732;2023-04-19T12:59:02;93858.78;;;19.45;53.30
11329;BME280;5719;42.714;23.732;2023-04-19T13:01:29;93857.13;;;19.30;53.68
11329;BME280;5719;42.714;23.732;2023-04-19T13:03:56;93858.84;;;19.23;52.99
11329;BME280;5719;42.714;23.732;2023-04-19T13:06:23;93864.50;;;19.12;54.62